Time;durP1;ratioP1;P1;durP2;ratioP2;P2;SDS_P1;SDS_P2;PMS_P1;PMS_P2;Temp;Humidity;BMP_temperature;BMP_pressure;BME280_temperature;BME280_humidity;BME280_pressure;Samples;Min_cycle;Max_cycle;Signal;HPM_P1;HPM_P2
2022/11/28 05:01:10;;;;;;;10.82;2.40;;;5.70;99.90;;;;;;5663839;23;20396;-70
2022/11/28 05:03:38;;;;;;;0.60;0.60;;;5.70;99.90;;;;;;4955059;28;20205;-71
2022/11/28 05:06:05;;;;;;;5.40;3.13;;;5.70;99.90;;;;;;4966787;28;20283;-70
2022/11/28 05:08:32;;;;;;;2.08;1.98;;;5.70;99.90;;;;;;4964051;28;20293;-70
2022/11/28 05:10:59;;;;;;;2.50;2.30;;;5.70;99.90;;;;;;4971114;28;20258;-71
2022/11/28 05:13:25;;;;;;;3.55;3.38;;;5.70;99.90;;;;;;4968296;28;20260;-71
2022/11/28 05:15:52;;;;;;;1.83;1.77;;;5.70;99.90;;;;;;4971388;28;20659;-73
2022/11/28 05:18:20;;;;;;;2.00;1.92;;;5.70;99.90;;;;;;4969258;28;20220;-71
2022/11/28 05:20:47;;;;;;;4.00;3.13;;;5.70;99.90;;;;;;4966030;28;20233;-72
2022/11/28 05:23:14;;;;;;;4.80;2.67;;;5.70;99.90;;;;;;4970802;28;20566;-71
2022/11/28 05:25:40;;;;;;;1.80;1.80;;;5.70;99.90;;;;;;4964788;28;20217;-72
2022/11/28 05:28:08;;;;;;;4.30;3.40;;;5.70;99.90;;;;;;4965015;28;20213;-71
2022/11/28 05:30:35;;;;;;;1.17;1.13;;;5.70;99.90;;;;;;4966745;28;20237;-71
2022/11/28 05:33:02;;;;;;;3.20;2.92;;;5.70;99.90;;;;;;4970002;28;20312;-71
2022/11/28 05:35:30;;;;;;;5.38;4.00;;;5.70;99.90;;;;;;4966681;28;20221;-72
2022/11/28 05:37:57;;;;;;;2.92;2.75;;;5.60;99.90;;;;;;4968002;28;20289;-70
2022/11/28 05:40:24;;;;;;;2.28;2.17;;;5.60;99.90;;;;;;4965529;28;20285;-69
2022/11/28 05:42:50;;;;;;;2.38;2.17;;;5.60;99.90;;;;;;4967929;28;20280;-71
2022/11/28 05:45:17;;;;;;;5.35;3.80;;;5.60;99.90;;;;;;4968816;28;20292;-71
2022/11/28 05:47:44;;;;;;;2.45;2.35;;;5.60;99.90;;;;;;4954776;28;20239;-70
2022/11/28 05:50:11;;;;;;;3.47;3.20;;;5.60;99.90;;;;;;4960803;28;20222;-71
2022/11/28 05:52:39;;;;;;;5.88;3.38;;;5.60;99.90;;;;;;4953366;28;20770;-72
2022/11/28 05:55:06;;;;;;;9.05;5.93;;;5.60;99.90;;;;;;4963271;28;20216;-71
2022/11/28 05:57:33;;;;;;;1.77;1.77;;;5.60;99.90;;;;;;4970260;28;20624;-72
2022/11/28 06:00:00;;;;;;;3.00;1.30;;;5.60;99.90;;;;;;4970973;28;20587;-71
2022/11/28 06:02:26;;;;;;;3.70;3.17;;;5.60;99.90;;;;;;4971554;28;20238;-72
2022/11/28 06:04:53;;;;;;;1.98;1.88;;;5.60;99.90;;;;;;4965584;28;20205;-72
2022/11/28 06:07:20;;;;;;;3.25;2.05;;;5.60;99.90;;;;;;4971200;28;20877;-72
2022/11/28 06:09:48;;;;;;;5.38;1.83;;;5.60;99.90;;;;;;4959360;28;20237;-71
2022/11/28 06:12:14;;;;;;;1.25;1.25;;;5.60;99.90;;;;;;4952235;28;20710;-72
2022/11/28 06:14:41;;;;;;;1.27;0.90;;;5.60;99.90;;;;;;4961538;28;20672;-71
2022/11/28 06:17:08;;;;;;;0.95;0.95;;;5.60;99.90;;;;;;4969736;28;20592;-72
2022/11/28 06:19:35;;;;;;;3.80;3.60;;;5.60;99.90;;;;;;4964956;28;20206;-72
2022/11/28 06:22:01;;;;;;;6.45;3.17;;;5.60;99.90;;;;;;4953171;29;20313;-72
2022/11/28 06:24:28;;;;;;;3.80;2.50;;;5.60;99.90;;;;;;4960508;28;20213;-72
2022/11/28 06:26:56;;;;;;;4.60;4.20;;;5.60;99.90;;;;;;4968711;28;20231;-71
2022/11/28 06:29:23;;;;;;;1.65;1.55;;;5.60;99.90;;;;;;4965722;28;20259;-70
2022/11/28 06:31:49;;;;;;;3.00;2.38;;;5.60;99.90;;;;;;4955954;28;20280;-71
2022/11/28 06:34:16;;;;;;;4.72;3.80;;;5.60;99.90;;;;;;4969030;28;20300;-71
2022/11/28 06:36:43;;;;;;;2.83;0.88;;;5.60;99.90;;;;;;4963042;28;20294;-71
2022/11/28 06:39:14;;;;;;;1.40;1.30;;;5.60;99.90;;;;;;4969924;28;20292;-71
2022/11/28 06:41:40;;;;;;;2.65;2.45;;;5.60;99.90;;;;;;4967497;28;20238;-72
2022/11/28 06:44:11;;;;;;;3.42;3.10;;;5.60;99.90;;;;;;4967114;28;20549;-71
2022/11/28 06:46:38;;;;;;;4.28;3.97;;;5.60;99.90;;;;;;4961269;28;20599;-71
2022/11/28 06:49:05;;;;;;;3.10;1.67;;;5.60;99.90;;;;;;4972698;28;20233;-70
2022/11/28 06:51:32;;;;;;;2.15;2.05;;;5.60;99.90;;;;;;4970473;28;20222;-71
2022/11/28 06:53:58;;;;;;;4.97;3.25;;;5.60;99.90;;;;;;4973853;28;20638;-72
2022/11/28 06:56:26;;;;;;;4.40;2.50;;;5.60;99.90;;;;;;4974925;28;20201;-71
2022/11/28 06:58:57;;;;;;;2.45;2.35;;;5.60;99.90;;;;;;4971291;28;20578;-72
2022/11/28 07:01:26;;;;;;;9.15;3.47;;;5.60;99.90;;;;;;4972637;28;20236;-72
2022/11/28 07:03:54;;;;;;;1.30;1.30;;;5.60;99.90;;;;;;4971635;28;20288;-73
2022/11/28 07:06:22;;;;;;;2.70;1.67;;;5.60;99.90;;;;;;4973388;28;20225;-72
2022/11/28 07:08:49;;;;;;;4.03;3.67;;;5.60;99.90;;;;;;4974525;28;20256;-72
2022/11/28 07:11:17;;;;;;;2.70;2.58;;;5.60;99.90;;;;;;4972868;28;20617;-73
2022/11/28 07:13:45;;;;;;;4.68;3.50;;;5.50;99.90;;;;;;4973557;28;20712;-71
2022/11/28 07:16:14;;;;;;;1.77;1.75;;;5.60;99.90;;;;;;4973579;28;20206;-71
2022/11/28 07:18:42;;;;;;;17.55;3.15;;;5.60;99.90;;;;;;4966424;28;20206;-72
2022/11/28 07:21:09;;;;;;;4.13;1.98;;;5.60;99.90;;;;;;4973661;28;20547;-73
2022/11/28 07:23:36;;;;;;;3.15;2.67;;;5.60;99.90;;;;;;4972243;28;20675;-72
2022/11/28 07:26:04;;;;;;;0.65;0.65;;;5.60;99.90;;;;;;4973165;28;20233;-72
2022/11/28 07:28:32;;;;;;;3.45;3.22;;;5.60;99.90;;;;;;4974523;28;20205;-73
2022/11/28 07:31:01;;;;;;;3.10;2.40;;;5.60;99.90;;;;;;4962474;28;20320;-72
2022/11/28 07:33:28;;;;;;;7.82;1.92;;;5.60;99.90;;;;;;4972189;28;20232;-73
2022/11/28 07:36:00;;;;;;;4.20;3.85;;;5.60;99.90;;;;;;4969136;28;20213;-73
2022/11/28 07:38:26;;;;;;;1.50;1.50;;;5.60;99.90;;;;;;4973664;28;20228;-72
2022/11/28 07:40:54;;;;;;;2.20;1.52;;;5.60;99.90;;;;;;4972059;28;20232;-72
2022/11/28 07:43:20;;;;;;;1.42;1.40;;;5.60;99.90;;;;;;4964844;28;20744;-72
2022/11/28 07:45:47;;;;;;;5.90;5.47;;;5.60;99.90;;;;;;4973230;28;20210;-72
2022/11/28 07:48:14;;;;;;;5.05;3.17;;;5.60;99.90;;;;;;4966495;28;20215;-72
2022/11/28 07:50:40;;;;;;;1.73;1.73;;;5.60;99.90;;;;;;4972223;28;20224;-72
2022/11/28 07:53:08;;;;;;;3.90;2.95;;;5.60;99.90;;;;;;4965424;28;20216;-72
2022/11/28 07:55:36;;;;;;;5.45;1.27;;;5.60;99.90;;;;;;4973240;28;20209;-71
2022/11/28 07:58:03;;;;;;;4.60;2.53;;;5.60;99.90;;;;;;4965627;28;20201;-72
2022/11/28 08:00:30;;;;;;;4.13;3.58;;;5.70;99.90;;;;;;4972262;28;20578;-71
2022/11/28 08:02:57;;;;;;;4.97;4.63;;;5.70;99.90;;;;;;4963288;28;20206;-70
2022/11/28 08:05:23;;;;;;;8.48;5.53;;;5.70;99.90;;;;;;4956205;28;20209;-72
2022/11/28 08:07:50;;;;;;;2.38;2.05;;;5.70;99.90;;;;;;4967224;28;20220;-72
2022/11/28 08:10:18;;;;;;;5.65;4.10;;;5.70;99.90;;;;;;4973614;28;20259;-72
2022/11/28 08:12:45;;;;;;;2.92;2.38;;;5.70;99.90;;;;;;4972325;28;20653;-71
2022/11/28 08:15:12;;;;;;;7.13;3.55;;;5.70;99.90;;;;;;4971301;28;20284;-73
2022/11/28 08:17:39;;;;;;;3.67;2.55;;;5.70;99.90;;;;;;4967638;28;20228;-71
2022/11/28 08:20:07;;;;;;;1.23;1.20;;;5.70;99.90;;;;;;4971330;28;20214;-72
2022/11/28 08:22:34;;;;;;;5.97;5.18;;;5.80;99.90;;;;;;4969682;28;20252;-71
2022/11/28 08:25:01;;;;;;;1.23;1.23;;;5.80;99.90;;;;;;4966529;28;20209;-71
2022/11/28 08:27:29;;;;;;;4.47;2.85;;;5.80;99.90;;;;;;4969354;28;20265;-70
2022/11/28 08:29:55;;;;;;;1.15;1.15;;;5.80;99.90;;;;;;4970251;28;20234;-70
2022/11/28 08:32:22;;;;;;;1.30;1.30;;;5.80;99.90;;;;;;4964899;28;20229;-71
2022/11/28 08:34:49;;;;;;;4.53;2.38;;;5.80;99.90;;;;;;4970692;28;20201;-71
2022/11/28 08:37:16;;;;;;;1.60;1.50;;;5.80;99.90;;;;;;4966231;28;20293;-71
2022/11/28 08:39:42;;;;;;;4.18;2.95;;;5.90;99.90;;;;;;4972229;28;20676;-72
2022/11/28 08:42:09;;;;;;;4.03;2.28;;;5.80;99.90;;;;;;4972221;28;20225;-71
2022/11/28 08:44:37;;;;;;;5.63;3.78;;;5.90;99.90;;;;;;4971206;28;20285;-72
2022/11/28 08:47:04;;;;;;;5.65;2.38;;;5.90;99.90;;;;;;4967564;28;20209;-72
2022/11/28 08:49:31;;;;;;;4.03;3.72;;;5.90;99.90;;;;;;4971116;28;20227;-71
2022/11/28 08:51:58;;;;;;;0.60;0.60;;;5.90;99.90;;;;;;4972703;28;20226;-71
2022/11/28 08:54:24;;;;;;;4.70;2.47;;;5.90;99.90;;;;;;4968767;28;20216;-71
2022/11/28 08:56:51;;;;;;;6.10;2.63;;;5.90;99.90;;;;;;4967987;28;20248;-72
2022/11/28 08:59:18;;;;;;;3.05;2.85;;;5.90;99.90;;;;;;4971610;28;20566;-72
2022/11/28 09:01:46;;;;;;;2.42;2.33;;;5.90;99.90;;;;;;4964038;28;20866;-72
2022/11/28 09:04:12;;;;;;;5.32;3.90;;;5.90;99.90;;;;;;4970190;28;20779;-70
2022/11/28 09:06:39;;;;;;;4.22;3.22;;;5.90;99.90;;;;;;4972233;28;20206;-71
2022/11/28 09:09:07;;;;;;;1.55;1.55;;;6.00;99.90;;;;;;4970090;28;20226;-72
2022/11/28 09:11:34;;;;;;;1.80;1.75;;;6.00;99.90;;;;;;4970512;28;20272;-72
2022/11/28 09:14:01;;;;;;;2.45;1.70;;;6.00;99.90;;;;;;4963942;28;20658;-72
2022/11/28 09:16:28;;;;;;;7.72;4.45;;;6.00;99.90;;;;;;4970350;28;20210;-72
2022/11/28 09:18:58;;;;;;;2.88;2.53;;;6.00;99.90;;;;;;4966911;28;20377;-73
2022/11/28 09:21:25;;;;;;;3.78;3.20;;;6.10;99.90;;;;;;4960949;28;20233;-71
2022/11/28 09:23:55;;;;;;;3.50;3.15;;;6.10;99.90;;;;;;4964565;28;20210;-71
2022/11/28 09:26:24;;;;;;;4.00;3.15;;;6.10;99.90;;;;;;4967127;28;20201;-72
2022/11/28 09:28:51;;;;;;;2.60;2.50;;;6.10;99.90;;;;;;4971230;28;20321;-72
2022/11/28 09:31:18;;;;;;;1.90;1.85;;;6.10;99.90;;;;;;4969551;28;20230;-72
2022/11/28 09:33:47;;;;;;;3.38;3.28;;;6.00;99.90;;;;;;4966787;28;20209;-72
2022/11/28 09:36:17;;;;;;;1.10;1.00;;;6.10;99.90;;;;;;4955096;28;20699;-71
2022/11/28 09:38:43;;;;;;;2.15;2.00;;;6.00;99.90;;;;;;4966449;28;20341;-69
2022/11/28 09:41:35;;;;;;;1.77;1.67;;;6.10;99.90;;;;;;4967419;28;20229;-70
2022/11/28 09:44:10;;;;;;;2.65;2.42;;;6.00;99.90;;;;;;4966815;28;20217;-71
2022/11/28 09:46:38;;;;;;;0.52;0.52;;;6.00;99.90;;;;;;4958126;28;20201;-71
2022/11/28 09:49:17;;;;;;;2.50;2.40;;;6.00;99.90;;;;;;4971029;28;20314;-71
2022/11/28 09:51:52;;;;;;;2.67;2.13;;;6.00;99.90;;;;;;4965109;28;20735;-72
2022/11/28 09:54:22;;;;;;;4.72;4.30;;;6.10;99.90;;;;;;4965016;28;20260;-70
2022/11/28 09:56:51;;;;;;;2.55;2.35;;;6.10;99.90;;;;;;4963369;28;20210;-71
2022/11/28 09:59:24;;;;;;;3.08;2.88;;;6.10;99.90;;;;;;4966257;28;20217;-71
2022/11/28 10:02:00;;;;;;;1.02;0.98;;;6.20;99.90;;;;;;4970798;28;20259;-70
2022/11/28 10:04:36;;;;;;;1.00;0.82;;;6.10;99.90;;;;;;4971777;28;20213;-71
2022/11/28 10:07:13;;;;;;;5.00;2.13;;;6.20;99.90;;;;;;4973537;28;20210;-72
2022/11/28 10:09:54;;;;;;;0.95;0.95;;;6.10;99.90;;;;;;4971547;28;20225;-71
2022/11/28 10:12:37;;;;;;;3.42;2.33;;;6.10;99.90;;;;;;4963920;28;20222;-72
2022/11/28 10:15:15;;;;;;;21.63;2.95;;;6.10;99.90;;;;;;4970401;28;20205;-72
2022/11/28 10:17:49;;;;;;;6.13;3.20;;;6.20;99.90;;;;;;4967379;28;20283;-72
2022/11/28 10:20:19;;;;;;;5.45;3.17;;;6.10;99.90;;;;;;4969116;28;20256;-72
2022/11/28 10:22:53;;;;;;;3.05;1.58;;;6.10;99.90;;;;;;4969039;28;20280;-71
2022/11/28 10:25:24;;;;;;;4.30;1.58;;;6.10;99.90;;;;;;4969288;28;20296;-71
2022/11/28 10:27:51;;;;;;;3.58;2.03;;;6.10;99.90;;;;;;4971481;28;20221;-71
2022/11/28 10:30:23;;;;;;;5.07;2.78;;;6.10;99.90;;;;;;4972333;28;20228;-71
2022/11/28 10:33:00;;;;;;;3.35;3.22;;;6.10;99.90;;;;;;4972838;28;20627;-72
2022/11/28 10:35:34;;;;;;;2.40;1.92;;;6.10;99.90;;;;;;4968456;28;20205;-70
2022/11/28 10:38:02;;;;;;;3.03;2.83;;;6.10;99.90;;;;;;4973313;28;20205;-72
2022/11/28 10:40:39;;;;;;;3.25;3.05;;;6.10;99.90;;;;;;4970590;28;20213;-71
2022/11/28 10:43:14;;;;;;;5.18;4.10;;;6.10;99.90;;;;;;4966563;28;20616;-72
2022/11/28 10:45:52;;;;;;;1.55;1.55;;;6.20;99.90;;;;;;4963642;28;20296;-72
2022/11/28 10:48:30;;;;;;;4.53;2.55;;;6.10;99.90;;;;;;4960361;28;20213;-70
2022/11/28 10:51:11;;;;;;;2.20;2.10;;;6.20;99.90;;;;;;4963950;28;20240;-72
2022/11/28 10:53:49;;;;;;;1.83;1.83;;;6.10;99.90;;;;;;4966406;28;20214;-71
2022/11/28 10:56:26;;;;;;;2.28;2.10;;;6.10;99.90;;;;;;4962235;28;20208;-71
2022/11/28 10:58:59;;;;;;;2.55;2.45;;;6.20;99.90;;;;;;4966448;28;20264;-70
2022/11/28 11:01:28;;;;;;;8.27;3.17;;;6.20;99.90;;;;;;4957846;28;20226;-70
2022/11/28 11:03:55;;;;;;;4.97;3.85;;;6.30;99.90;;;;;;4967870;28;20657;-71
2022/11/28 11:06:25;;;;;;;2.92;2.70;;;6.30;99.90;;;;;;4954653;29;20214;-69
2022/11/28 11:08:53;;;;;;;5.90;3.35;;;6.30;99.90;;;;;;4981308;28;20197;-71
2022/11/28 11:11:26;;;;;;;2.95;2.85;;;6.30;99.90;;;;;;4977909;28;20233;-71
2022/11/28 11:13:58;;;;;;;3.60;3.38;;;6.30;99.90;;;;;;4970853;28;20206;-70
2022/11/28 11:16:25;;;;;;;3.20;2.63;;;6.30;99.90;;;;;;4984436;28;20217;-67
2022/11/28 11:18:53;;;;;;;4.97;4.30;;;6.20;99.90;;;;;;4979043;28;20206;-69
2022/11/28 11:21:21;;;;;;;2.08;1.95;;;6.20;99.90;;;;;;4973040;28;20225;-70
2022/11/28 11:23:49;;;;;;;2.92;2.72;;;6.10;99.90;;;;;;4975441;28;20213;-70
2022/11/28 11:26:28;;;;;;;5.65;3.05;;;6.10;99.90;;;;;;4974589;28;20213;-70
2022/11/28 11:28:56;;;;;;;4.03;3.03;;;6.00;99.90;;;;;;4972245;28;20280;-70
2022/11/28 11:31:26;;;;;;;2.25;1.88;;;6.00;99.90;;;;;;4972321;28;20225;-69
2022/11/28 11:34:01;;;;;;;3.30;3.15;;;6.00;99.90;;;;;;4963921;28;20205;-70
2022/11/28 11:36:29;;;;;;;10.43;4.10;;;5.90;99.90;;;;;;4962506;28;20205;-68
2022/11/28 11:39:15;;;;;;;4.88;2.28;;;5.80;99.90;;;;;;4971594;28;20218;-68
2022/11/28 11:41:45;;;;;;;3.47;3.30;;;5.80;99.90;;;;;;4963096;28;20225;-69
2022/11/28 11:44:28;;;;;;;12.32;3.33;;;5.80;99.90;;;;;;4967320;28;20692;-70
2022/11/28 11:46:57;;;;;;;2.30;2.30;;;5.80;99.90;;;;;;4970027;28;20241;-70
2022/11/28 11:49:35;;;;;;;4.55;3.10;;;5.80;99.90;;;;;;4967322;28;20209;-68
2022/11/28 11:52:05;;;;;;;6.85;3.72;;;5.70;99.90;;;;;;4964832;28;20570;-69
2022/11/28 11:54:32;;;;;;;3.28;3.08;;;5.70;99.90;;;;;;4973904;28;20210;-69
2022/11/28 11:57:02;;;;;;;5.32;3.20;;;5.70;99.90;;;;;;4972068;28;20204;-70
2022/11/28 11:59:33;;;;;;;3.45;2.70;;;5.70;99.90;;;;;;4959491;28;20268;-70
2022/11/28 12:02:05;;;;;;;6.70;3.70;;;5.70;99.90;;;;;;4972961;28;20647;-70
2022/11/28 12:04:37;;;;;;;2.95;2.83;;;5.70;99.90;;;;;;4960807;28;20206;-70
2022/11/28 12:07:11;;;;;;;3.75;3.45;;;5.70;99.90;;;;;;4967884;28;20219;-70
2022/11/28 12:09:43;;;;;;;7.43;4.30;;;5.70;99.90;;;;;;4961721;28;20212;-69
2022/11/28 12:12:16;;;;;;;3.35;3.20;;;5.70;99.90;;;;;;4972594;28;20233;-73
2022/11/28 12:14:43;;;;;;;6.25;2.95;;;5.70;99.90;;;;;;4967591;28;20206;-69
2022/11/28 12:17:23;;;;;;;8.43;2.55;;;5.70;99.90;;;;;;4964082;28;20287;-69
2022/11/28 12:20:01;;;;;;;2.65;2.38;;;5.70;99.90;;;;;;4961050;28;20585;-70
2022/11/28 12:22:38;;;;;;;3.20;3.10;;;5.80;99.90;;;;;;4967103;28;20867;-69
2022/11/28 12:25:16;;;;;;;3.33;3.00;;;5.80;99.90;;;;;;4962027;28;20216;-69
2022/11/28 12:27:59;;;;;;;4.80;4.43;;;5.80;99.90;;;;;;4972522;28;20574;-70
2022/11/28 12:30:35;;;;;;;4.78;4.45;;;5.80;99.90;;;;;;4969388;28;20244;-69
2022/11/28 12:33:18;;;;;;;4.65;4.13;;;5.80;99.90;;;;;;4953921;28;20202;-69
2022/11/28 12:35:51;;;;;;;3.08;2.28;;;5.80;99.90;;;;;;4961880;28;20216;-69
2022/11/28 12:38:30;;;;;;;2.70;2.60;;;5.80;99.90;;;;;;4973122;28;20213;-71
2022/11/28 12:41:13;;;;;;;4.63;2.78;;;5.80;99.90;;;;;;4971249;28;20237;-70
2022/11/28 12:43:54;;;;;;;3.08;2.97;;;5.90;99.90;;;;;;4958862;28;20275;-71
2022/11/28 12:46:28;;;;;;;2.10;1.77;;;5.80;99.90;;;;;;4973580;28;20210;-70
2022/11/28 12:49:09;;;;;;;4.75;4.55;;;5.80;99.90;;;;;;4972116;28;20236;-71
2022/11/28 12:51:46;;;;;;;2.85;2.67;;;5.80;99.90;;;;;;4967606;28;20596;-68
2022/11/28 12:54:45;;;;;;;4.35;3.10;;;5.80;99.90;;;;;;4964766;28;20216;-69
2022/11/28 12:57:21;;;;;;;4.82;3.47;;;5.80;99.90;;;;;;4971016;28;20632;-70
2022/11/28 12:59:57;;;;;;;1.60;1.60;;;5.80;99.90;;;;;;4970123;28;20200;-68
2022/11/28 13:02:34;;;;;;;2.10;1.90;;;5.80;99.90;;;;;;4973152;28;20233;-68
2022/11/28 13:05:24;;;;;;;2.10;2.00;;;5.80;99.90;;;;;;4971383;28;20209;-69
2022/11/28 13:08:20;;;;;;;2.75;2.50;;;5.80;99.90;;;;;;4966849;28;20217;-69
2022/11/28 13:10:52;;;;;;;5.10;3.58;;;5.80;99.90;;;;;;4970195;28;20249;-69
2022/11/28 13:13:24;;;;;;;4.30;4.00;;;5.80;99.90;;;;;;4969596;28;20272;-70
2022/11/28 13:16:02;;;;;;;2.58;2.47;;;5.80;99.90;;;;;;4966413;28;20228;-69
2022/11/28 13:18:39;;;;;;;3.25;2.03;;;5.80;99.90;;;;;;4961422;28;20234;-69
2022/11/28 13:21:16;;;;;;;1.95;1.85;;;5.80;99.90;;;;;;4962151;28;20312;-70
2022/11/28 13:23:46;;;;;;;2.40;1.50;;;5.70;99.90;;;;;;4953180;28;20280;-70
2022/11/28 13:26:21;;;;;;;7.28;3.97;;;5.70;99.90;;;;;;4967868;28;20649;-71
2022/11/28 13:28:54;;;;;;;2.70;2.55;;;5.60;99.90;;;;;;4971119;28;20201;-69
2022/11/28 13:31:27;;;;;;;7.68;3.05;;;5.60;99.90;;;;;;4958706;28;20232;-69
2022/11/28 13:33:56;;;;;;;2.58;2.38;;;5.60;99.90;;;;;;4969991;28;20212;-70
2022/11/28 13:36:34;;;;;;;3.92;3.60;;;5.60;99.90;;;;;;4964888;28;20209;-68
2022/11/28 13:39:08;;;;;;;1.58;1.48;;;5.60;99.90;;;;;;4961942;28;20225;-70
2022/11/28 13:41:39;;;;;;;2.90;2.70;;;5.60;99.90;;;;;;4958161;28;20225;-69
2022/11/28 13:44:14;;;;;;;4.10;3.70;;;5.60;99.90;;;;;;4962715;28;20683;-70
2022/11/28 13:46:43;;;;;;;2.30;2.30;;;5.60;99.90;;;;;;4953024;29;20660;-69
2022/11/28 13:49:21;;;;;;;2.35;2.25;;;5.60;99.90;;;;;;4962871;28;20232;-69
2022/11/28 13:51:48;;;;;;;2.15;1.92;;;5.60;99.90;;;;;;4970286;28;20368;-70
2022/11/28 13:54:34;;;;;;;3.85;3.55;;;5.60;99.90;;;;;;4961556;28;20208;-69
2022/11/28 13:57:08;;;;;;;6.03;4.38;;;5.60;99.90;;;;;;4952027;28;20221;-70
2022/11/28 13:59:36;;;;;;;4.13;3.72;;;5.60;99.90;;;;;;4952910;29;20237;-70
2022/11/28 14:02:17;;;;;;;2.63;2.40;;;5.60;99.90;;;;;;4960965;28;20243;-69
2022/11/28 14:04:44;;;;;;;4.18;3.80;;;5.60;99.90;;;;;;4965302;28;20197;-69
2022/11/28 14:07:22;;;;;;;12.95;5.55;;;5.60;99.90;;;;;;4952381;29;20217;-70
2022/11/28 14:10:05;;;;;;;3.42;2.58;;;5.60;99.90;;;;;;4952831;29;20208;-71
2022/11/28 14:12:37;;;;;;;4.43;3.72;;;5.60;99.90;;;;;;4964251;28;20358;-69
2022/11/28 14:15:19;;;;;;;1.75;1.75;;;5.60;99.90;;;;;;4965139;28;20211;-69
2022/11/28 14:18:10;;;;;;;3.50;3.25;;;5.60;99.90;;;;;;4965366;28;20211;-67
2022/11/28 14:20:53;;;;;;;2.60;2.50;;;5.60;99.90;;;;;;4951684;28;20230;-69
2022/11/28 14:23:29;;;;;;;2.38;2.20;;;5.60;99.90;;;;;;4971056;28;20255;-69
2022/11/28 14:25:56;;;;;;;4.30;2.58;;;5.60;99.90;;;;;;4959624;28;20317;-68
2022/11/28 14:28:26;;;;;;;4.15;3.25;;;5.60;99.90;;;;;;4969850;28;20320;-69
2022/11/28 14:31:01;;;;;;;2.45;2.25;;;5.60;99.90;;;;;;4971023;28;20222;-70
2022/11/28 14:33:36;;;;;;;7.80;4.35;;;5.60;99.90;;;;;;4962182;28;20265;-70
2022/11/28 14:36:07;;;;;;;5.93;3.05;;;5.60;99.90;;;;;;4961605;28;20255;-70
2022/11/28 14:38:45;;;;;;;7.90;5.00;;;5.60;99.90;;;;;;4959875;28;20213;-68
2022/11/28 14:41:14;;;;;;;1.75;1.23;;;5.60;99.90;;;;;;4967038;28;20223;-69
2022/11/28 14:43:43;;;;;;;2.22;2.03;;;5.60;99.90;;;;;;4970856;28;20213;-69
2022/11/28 14:46:26;;;;;;;3.65;2.22;;;5.60;99.90;;;;;;4968930;28;20265;-69
2022/11/28 14:49:22;;;;;;;6.15;3.20;;;5.60;99.90;;;;;;4959930;28;20229;-69
2022/11/28 14:52:19;;;;;;;2.08;1.83;;;5.60;99.90;;;;;;4968602;28;20229;-68
2022/11/28 14:54:46;;;;;;;2.97;2.70;;;5.60;99.90;;;;;;4969432;28;20289;-71
2022/11/28 14:57:17;;;;;;;2.05;1.95;;;5.60;99.90;;;;;;4966050;28;20202;-69
2022/11/28 14:59:45;;;;;;;3.00;2.80;;;5.60;99.90;;;;;;4965913;28;20669;-70
2022/11/28 15:02:43;;;;;;;8.60;3.40;;;5.60;99.90;;;;;;4966669;28;20336;-69
2022/11/28 15:05:34;;;;;;;3.63;3.47;;;5.60;99.90;;;;;;4928833;28;20668;-69
2022/11/28 15:08:36;;;;;;;1.70;1.58;;;5.60;99.90;;;;;;4968162;28;20241;-70
2022/11/28 15:11:15;;;;;;;5.93;3.42;;;5.60;99.90;;;;;;4970550;28;20239;-70
2022/11/28 15:14:01;;;;;;;4.05;3.72;;;5.60;99.90;;;;;;4970545;28;20217;-70
2022/11/28 15:16:30;;;;;;;1.75;1.65;;;5.60;99.90;;;;;;4969323;28;20958;-68
2022/11/28 15:19:04;;;;;;;5.38;2.38;;;5.60;99.90;;;;;;4966152;28;20244;-70
2022/11/28 15:21:42;;;;;;;3.20;2.28;;;5.60;99.90;;;;;;4968504;28;20231;-69
2022/11/28 15:24:15;;;;;;;4.88;4.13;;;5.60;99.90;;;;;;4970423;28;20213;-69
2022/11/28 15:26:43;;;;;;;7.32;5.50;;;5.60;99.90;;;;;;4963763;28;20206;-71
2022/11/28 15:29:14;;;;;;;2.35;2.20;;;5.60;99.90;;;;;;4973844;28;20397;-69
2022/11/28 15:31:42;;;;;;;7.72;2.75;;;5.60;99.90;;;;;;4973119;28;20232;-70
2022/11/28 15:34:10;;;;;;;7.18;3.53;;;5.60;99.90;;;;;;4964649;28;20217;-70
2022/11/28 15:36:39;;;;;;;2.08;1.88;;;5.60;99.90;;;;;;4969220;28;20228;-71
2022/11/28 15:39:24;;;;;;;3.47;3.33;;;5.60;99.90;;;;;;4963762;28;20241;-69
2022/11/28 15:41:50;;;;;;;10.70;4.85;;;5.60;99.90;;;;;;4956792;28;20226;-69
2022/11/28 15:44:17;;;;;;;5.15;3.35;;;5.60;99.90;;;;;;4971879;28;20673;-69
2022/11/28 15:46:44;;;;;;;5.40;4.82;;;5.60;99.90;;;;;;4968472;28;20209;-69
2022/11/28 15:49:23;;;;;;;2.65;2.33;;;5.50;99.90;;;;;;4969986;28;20208;-69
2022/11/28 15:51:54;;;;;;;1.05;1.05;;;5.50;99.90;;;;;;4965318;28;20260;-68
2022/11/28 15:54:34;;;;;;;3.42;3.25;;;5.50;99.90;;;;;;4962415;28;20292;-69
2022/11/28 15:57:01;;;;;;;8.65;3.33;;;5.50;99.90;;;;;;4969352;28;20211;-70
2022/11/28 15:59:29;;;;;;;5.47;3.20;;;5.50;99.90;;;;;;4962983;28;20217;-70
2022/11/28 16:01:59;;;;;;;2.90;2.70;;;5.50;99.90;;;;;;4973614;28;20641;-70
2022/11/28 16:04:27;;;;;;;6.57;4.43;;;5.50;99.90;;;;;;4971072;28;20209;-71
2022/11/28 16:06:58;;;;;;;3.95;3.60;;;5.50;99.90;;;;;;4970944;28;20293;-70
2022/11/28 16:09:28;;;;;;;13.25;4.10;;;5.50;99.90;;;;;;4962418;28;20639;-70
2022/11/28 16:11:55;;;;;;;6.10;5.60;;;5.50;99.90;;;;;;4957991;28;20284;-70
2022/11/28 16:14:27;;;;;;;2.75;2.65;;;5.50;99.90;;;;;;4958401;28;20668;-70
2022/11/28 16:16:55;;;;;;;2.13;2.08;;;5.50;99.90;;;;;;4966198;28;20293;-70
2022/11/28 16:19:26;;;;;;;5.60;4.20;;;5.50;99.90;;;;;;4967276;28;20202;-70
2022/11/28 16:21:56;;;;;;;3.80;2.40;;;5.50;99.90;;;;;;4967403;28;20253;-70
2022/11/28 16:24:28;;;;;;;4.50;3.13;;;5.50;99.90;;;;;;4961685;28;20189;-69
2022/11/28 16:26:58;;;;;;;8.55;5.32;;;5.50;99.90;;;;;;4977635;28;20540;-70
2022/11/28 16:29:26;;;;;;;6.30;5.57;;;5.50;99.90;;;;;;4976924;28;20546;-69
2022/11/28 16:31:53;;;;;;;4.68;3.80;;;5.50;99.90;;;;;;4977518;28;20600;-70
2022/11/28 16:34:44;;;;;;;2.10;1.92;;;5.50;99.90;;;;;;4978665;28;20212;-69
2022/11/28 16:37:12;;;;;;;4.55;4.30;;;5.50;99.90;;;;;;4979060;28;20220;-70
2022/11/28 16:39:39;;;;;;;2.80;2.67;;;5.50;99.90;;;;;;4976177;28;20208;-70
2022/11/28 16:42:13;;;;;;;2.40;2.30;;;5.50;99.90;;;;;;4975852;28;20237;-72
2022/11/28 16:44:40;;;;;;;3.63;3.50;;;5.50;99.90;;;;;;4967181;28;20201;-69
2022/11/28 16:47:25;;;;;;;13.20;5.18;;;5.50;99.90;;;;;;4965368;28;20566;-70
2022/11/28 16:50:16;;;;;;;4.82;4.53;;;5.50;99.90;;;;;;4971957;28;20400;-69
2022/11/28 16:52:56;;;;;;;5.18;4.53;;;5.50;99.90;;;;;;4963883;28;20311;-70
2022/11/28 16:55:43;;;;;;;9.02;5.32;;;5.50;99.90;;;;;;4964227;28;20676;-71
2022/11/28 16:58:18;;;;;;;1.83;1.70;;;5.50;99.90;;;;;;4963981;28;20269;-70
2022/11/28 17:00:50;;;;;;;4.45;4.05;;;5.50;99.90;;;;;;4968839;28;20769;-71
2022/11/28 17:03:56;;;;;;;4.95;4.55;;;5.40;99.90;;;;;;4970356;28;21163;-70
2022/11/28 17:06:28;;;;;;;5.03;4.47;;;5.50;99.90;;;;;;4953796;29;20210;-70
2022/11/28 17:08:56;;;;;;;10.25;4.82;;;5.40;99.90;;;;;;4954416;28;20232;-71
2022/11/28 17:11:27;;;;;;;4.13;3.40;;;5.40;99.90;;;;;;4961263;28;20226;-69
2022/11/28 17:13:54;;;;;;;3.35;3.15;;;5.50;99.90;;;;;;4960849;28;20205;-70
2022/11/28 17:16:22;;;;;;;4.93;3.17;;;5.40;99.90;;;;;;4967767;28;20660;-69
2022/11/28 17:18:50;;;;;;;3.50;1.70;;;5.50;99.90;;;;;;4968903;28;20213;-69
2022/11/28 17:21:21;;;;;;;4.30;4.00;;;5.50;99.90;;;;;;4967385;28;20241;-69
2022/11/28 17:23:48;;;;;;;5.38;4.78;;;5.50;99.90;;;;;;4968687;28;20206;-69
2022/11/28 17:26:16;;;;;;;3.95;2.90;;;5.50;99.90;;;;;;4971161;28;20572;-69
2022/11/28 17:28:43;;;;;;;4.38;2.60;;;5.50;99.90;;;;;;4970177;28;20205;-68
2022/11/28 17:31:12;;;;;;;12.85;4.20;;;5.50;99.90;;;;;;4970565;28;20229;-69
2022/11/28 17:33:39;;;;;;;6.47;4.00;;;5.50;99.90;;;;;;4959498;28;20723;-70
2022/11/28 17:36:06;;;;;;;7.60;3.60;;;5.50;99.90;;;;;;4952346;28;20268;-70
2022/11/28 17:38:34;;;;;;;6.20;3.45;;;5.50;99.90;;;;;;4971038;28;20283;-70
2022/11/28 17:41:01;;;;;;;6.50;5.53;;;5.50;99.90;;;;;;4955961;28;20237;-70
2022/11/28 17:43:29;;;;;;;9.05;5.38;;;5.50;99.90;;;;;;4961014;28;20297;-70
2022/11/28 17:45:57;;;;;;;5.43;3.88;;;5.50;99.90;;;;;;4957242;28;20207;-70
2022/11/28 17:48:24;;;;;;;3.95;3.47;;;5.50;99.90;;;;;;4967192;28;20213;-70
2022/11/28 17:50:51;;;;;;;4.30;3.80;;;5.50;99.90;;;;;;4972094;28;20321;-69
2022/11/28 17:53:20;;;;;;;8.20;3.30;;;5.50;99.90;;;;;;4981810;28;20263;-69
2022/11/28 17:55:50;;;;;;;2.17;2.05;;;5.50;99.90;;;;;;4981052;28;20198;-70
2022/11/28 17:58:18;;;;;;;10.40;3.58;;;5.50;99.90;;;;;;4978993;28;20239;-72
2022/11/28 18:00:47;;;;;;;8.48;3.10;;;5.50;99.90;;;;;;4978888;28;20233;-70
2022/11/28 18:03:14;;;;;;;4.90;4.25;;;5.50;99.90;;;;;;4971066;28;20308;-71
2022/11/28 18:05:44;;;;;;;4.85;4.35;;;5.50;99.90;;;;;;4966112;28;20213;-71
2022/11/28 18:08:11;;;;;;;3.97;3.75;;;5.50;99.90;;;;;;4973371;28;20209;-70
2022/11/28 18:10:39;;;;;;;3.70;3.38;;;5.50;99.90;;;;;;4964986;28;20237;-70
2022/11/28 18:13:08;;;;;;;8.02;3.70;;;5.50;99.90;;;;;;4970118;28;20240;-71
2022/11/28 18:15:35;;;;;;;10.10;5.10;;;5.50;99.90;;;;;;4967427;28;20208;-68
2022/11/28 18:18:04;;;;;;;9.32;4.05;;;5.50;99.90;;;;;;4971172;28;20288;-70
2022/11/28 18:20:31;;;;;;;5.63;4.63;;;5.50;99.90;;;;;;4973693;28;20209;-69